sensor_id;sensor_type;location;lat;lon;timestamp;temperature;humidity
46752;DHT22;32497;48.936;9.270;2022-10-31T00:02:58;12.00;89.40
46752;DHT22;32497;48.936;9.270;2022-10-31T00:07:59;11.80;89.80
46752;DHT22;32497;48.936;9.270;2022-10-31T00:13:00;11.60;90.10
46752;DHT22;32497;48.936;9.270;2022-10-31T00:18:03;11.60;90.00
46752;DHT22;32497;48.936;9.270;2022-10-31T00:23:05;11.40;91.00
46752;DHT22;32497;48.936;9.270;2022-10-31T00:28:08;11.40;91.80
46752;DHT22;32497;48.936;9.270;2022-10-31T00:33:12;11.50;91.80
46752;DHT22;32497;48.936;9.270;2022-10-31T00:38:13;11.60;91.80
46752;DHT22;32497;48.936;9.270;2022-10-31T00:43:14;11.60;91.70
46752;DHT22;32497;48.936;9.270;2022-10-31T00:48:16;11.70;91.90
46752;DHT22;32497;48.936;9.270;2022-10-31T00:53:17;11.60;91.50
46752;DHT22;32497;48.936;9.270;2022-10-31T00:58:18;11.50;91.00
46752;DHT22;32497;48.936;9.270;2022-10-31T01:03:22;11.30;91.00
46752;DHT22;32497;48.936;9.270;2022-10-31T01:08:23;11.10;91.10
46752;DHT22;32497;48.936;9.270;2022-10-31T01:13:24;11.10;91.50
46752;DHT22;32497;48.936;9.270;2022-10-31T01:18:27;11.10;91.70
46752;DHT22;32497;48.936;9.270;2022-10-31T01:23:29;11.10;91.70
46752;DHT22;32497;48.936;9.270;2022-10-31T01:28:30;11.10;92.00
46752;DHT22;32497;48.936;9.270;2022-10-31T01:33:32;11.10;91.30
46752;DHT22;32497;48.936;9.270;2022-10-31T01:38:33;11.10;90.90
46752;DHT22;32497;48.936;9.270;2022-10-31T01:43:47;11.00;90.60
46752;DHT22;32497;48.936;9.270;2022-10-31T01:48:51;10.90;90.40
46752;DHT22;32497;48.936;9.270;2022-10-31T01:53:56;10.80;90.40
46752;DHT22;32497;48.936;9.270;2022-10-31T01:59:00;10.70;90.50
46752;DHT22;32497;48.936;9.270;2022-10-31T02:04:03;10.70;90.40
46752;DHT22;32497;48.936;9.270;2022-10-31T02:09:05;10.70;90.50
46752;DHT22;32497;48.936;9.270;2022-10-31T02:14:06;10.60;90.60
46752;DHT22;32497;48.936;9.270;2022-10-31T02:19:11;10.60;90.70
46752;DHT22;32497;48.936;9.270;2022-10-31T02:30:07;10.70;90.80
46752;DHT22;32497;48.936;9.270;2022-10-31T02:35:21;10.60;90.60
46752;DHT22;32497;48.936;9.270;2022-10-31T02:40:26;10.60;90.50
46752;DHT22;32497;48.936;9.270;2022-10-31T02:45:48;10.60;90.90
46752;DHT22;32497;48.936;9.270;2022-10-31T02:50:55;10.50;91.30
46752;DHT22;32497;48.936;9.270;2022-10-31T02:56:00;10.40;92.10
46752;DHT22;32497;48.936;9.270;2022-10-31T03:06:41;10.40;91.50
46752;DHT22;32497;48.936;9.270;2022-10-31T03:11:50;10.40;91.00
46752;DHT22;32497;48.936;9.270;2022-10-31T03:16:56;10.30;91.10
46752;DHT22;32497;48.936;9.270;2022-10-31T03:22:05;10.20;91.60
46752;DHT22;32497;48.936;9.270;2022-10-31T03:27:10;10.10;91.80
46752;DHT22;32497;48.936;9.270;2022-10-31T03:32:17;10.10;92.00
46752;DHT22;32497;48.936;9.270;2022-10-31T03:37:24;10.20;91.70
46752;DHT22;32497;48.936;9.270;2022-10-31T03:42:30;10.20;91.10
46752;DHT22;32497;48.936;9.270;2022-10-31T03:47:32;10.20;91.20
46752;DHT22;32497;48.936;9.270;2022-10-31T03:52:39;10.20;90.80
46752;DHT22;32497;48.936;9.270;2022-10-31T03:57:45;10.30;90.80
46752;DHT22;32497;48.936;9.270;2022-10-31T04:02:51;10.30;90.50
46752;DHT22;32497;48.936;9.270;2022-10-31T04:07:57;10.20;90.80
46752;DHT22;32497;48.936;9.270;2022-10-31T04:13:03;10.10;90.90
46752;DHT22;32497;48.936;9.270;2022-10-31T04:18:32;10.10;91.10
46752;DHT22;32497;48.936;9.270;2022-10-31T04:23:36;10.20;91.30
46752;DHT22;32497;48.936;9.270;2022-10-31T04:28:45;10.20;91.20
46752;DHT22;32497;48.936;9.270;2022-10-31T04:33:47;10.20;91.20
46752;DHT22;32497;48.936;9.270;2022-10-31T04:38:49;10.10;91.20
46752;DHT22;32497;48.936;9.270;2022-10-31T04:44:09;10.10;91.50
46752;DHT22;32497;48.936;9.270;2022-10-31T04:49:10;10.10;91.30
46752;DHT22;32497;48.936;9.270;2022-10-31T04:54:13;10.00;91.00
46752;DHT22;32497;48.936;9.270;2022-10-31T04:59:29;10.00;91.10
46752;DHT22;32497;48.936;9.270;2022-10-31T05:04:30;9.90;91.50
46752;DHT22;32497;48.936;9.270;2022-10-31T05:09:33;9.90;91.30
46752;DHT22;32497;48.936;9.270;2022-10-31T05:14:34;9.80;91.10
46752;DHT22;32497;48.936;9.270;2022-10-31T05:20:04;9.70;91.30
46752;DHT22;32497;48.936;9.270;2022-10-31T05:25:24;9.60;92.50
46752;DHT22;32497;48.936;9.270;2022-10-31T05:30:27;9.70;91.60
46752;DHT22;32497;48.936;9.270;2022-10-31T05:35:30;9.60;91.30
46752;DHT22;32497;48.936;9.270;2022-10-31T05:40:57;9.50;91.30
46752;DHT22;32497;48.936;9.270;2022-10-31T05:45:58;9.60;91.30
46752;DHT22;32497;48.936;9.270;2022-10-31T05:51:34;9.50;91.30
46752;DHT22;32497;48.936;9.270;2022-10-31T05:56:39;9.50;91.30
46752;DHT22;32497;48.936;9.270;2022-10-31T06:01:40;9.40;91.20
46752;DHT22;32497;48.936;9.270;2022-10-31T06:06:50;9.30;91.80
46752;DHT22;32497;48.936;9.270;2022-10-31T06:11:54;9.40;91.90
46752;DHT22;32497;48.936;9.270;2022-10-31T06:17:01;9.40;91.80
46752;DHT22;32497;48.936;9.270;2022-10-31T06:22:28;9.40;91.80
46752;DHT22;32497;48.936;9.270;2022-10-31T06:27:31;9.50;91.60
46752;DHT22;32497;48.936;9.270;2022-10-31T06:32:37;9.50;91.70
46752;DHT22;32497;48.936;9.270;2022-10-31T06:37:39;9.50;91.50
46752;DHT22;32497;48.936;9.270;2022-10-31T06:42:59;9.60;91.50
46752;DHT22;32497;48.936;9.270;2022-10-31T06:48:00;9.60;91.60
46752;DHT22;32497;48.936;9.270;2022-10-31T06:53:03;9.70;91.40
46752;DHT22;32497;48.936;9.270;2022-10-31T06:58:06;9.70;92.20
46752;DHT22;32497;48.936;9.270;2022-10-31T07:03:10;9.90;92.10
46752;DHT22;32497;48.936;9.270;2022-10-31T07:08:13;10.00;91.70
46752;DHT22;32497;48.936;9.270;2022-10-31T07:13:16;10.10;91.70
46752;DHT22;32497;48.936;9.270;2022-10-31T07:18:24;10.10;91.80
46752;DHT22;32497;48.936;9.270;2022-10-31T07:23:27;10.20;91.70
46752;DHT22;32497;48.936;9.270;2022-10-31T07:29:07;10.40;91.50
46752;DHT22;32497;48.936;9.270;2022-10-31T07:34:08;10.50;91.30
46752;DHT22;32497;48.936;9.270;2022-10-31T07:39:09;10.60;91.30
46752;DHT22;32497;48.936;9.270;2022-10-31T07:44:12;10.60;91.40
46752;DHT22;32497;48.936;9.270;2022-10-31T07:49:32;10.80;91.20
46752;DHT22;32497;48.936;9.270;2022-10-31T07:54:51;10.90;91.30
46752;DHT22;32497;48.936;9.270;2022-10-31T07:59:58;10.90;90.70
46752;DHT22;32497;48.936;9.270;2022-10-31T08:05:00;11.10;90.60
46752;DHT22;32497;48.936;9.270;2022-10-31T08:10:05;11.20;91.20
46752;DHT22;32497;48.936;9.270;2022-10-31T08:15:08;11.60;91.30
46752;DHT22;32497;48.936;9.270;2022-10-31T08:20:10;11.70;91.00
46752;DHT22;32497;48.936;9.270;2022-10-31T08:25:18;11.70;89.80
46752;DHT22;32497;48.936;9.270;2022-10-31T08:30:22;12.00;90.80
46752;DHT22;32497;48.936;9.270;2022-10-31T08:35:44;12.40;90.90
46752;DHT22;32497;48.936;9.270;2022-10-31T08:41:05;12.60;90.40
46752;DHT22;32497;48.936;9.270;2022-10-31T08:46:08;12.70;90.20
46752;DHT22;32497;48.936;9.270;2022-10-31T08:51:10;12.90;90.00
46752;DHT22;32497;48.936;9.270;2022-10-31T08:56:11;13.10;89.80
46752;DHT22;32497;48.936;9.270;2022-10-31T09:01:14;13.30;90.10
46752;DHT22;32497;48.936;9.270;2022-10-31T09:06:17;13.40;88.80
46752;DHT22;32497;48.936;9.270;2022-10-31T09:11:18;13.60;88.00
46752;DHT22;32497;48.936;9.270;2022-10-31T09:16:39;13.70;89.10
46752;DHT22;32497;48.936;9.270;2022-10-31T09:21:44;14.10;89.60
46752;DHT22;32497;48.936;9.270;2022-10-31T09:26:45;14.30;87.20
46752;DHT22;32497;48.936;9.270;2022-10-31T09:31:56;14.50;87.90
46752;DHT22;32497;48.936;9.270;2022-10-31T09:37:00;14.60;86.40
46752;DHT22;32497;48.936;9.270;2022-10-31T09:42:27;14.80;87.00
46752;DHT22;32497;48.936;9.270;2022-10-31T09:47:43;14.90;87.70
46752;DHT22;32497;48.936;9.270;2022-10-31T09:53:12;15.10;83.80
46752;DHT22;32497;48.936;9.270;2022-10-31T09:58:16;15.20;84.80
46752;DHT22;32497;48.936;9.270;2022-10-31T10:03:27;15.50;85.90
46752;DHT22;32497;48.936;9.270;2022-10-31T10:08:31;15.50;83.90
46752;DHT22;32497;48.936;9.270;2022-10-31T10:13:44;15.60;84.90
46752;DHT22;32497;48.936;9.270;2022-10-31T10:19:02;15.70;82.60
46752;DHT22;32497;48.936;9.270;2022-10-31T10:24:17;15.70;84.00
46752;DHT22;32497;48.936;9.270;2022-10-31T10:29:31;15.90;81.70
46752;DHT22;32497;48.936;9.270;2022-10-31T10:34:39;16.00;82.30
46752;DHT22;32497;48.936;9.270;2022-10-31T10:39:43;16.50;80.10
46752;DHT22;32497;48.936;9.270;2022-10-31T10:44:47;16.80;79.90
46752;DHT22;32497;48.936;9.270;2022-10-31T10:49:51;17.00;77.70
46752;DHT22;32497;48.936;9.270;2022-10-31T10:55:02;17.10;76.80
46752;DHT22;32497;48.936;9.270;2022-10-31T11:00:16;17.30;76.20
46752;DHT22;32497;48.936;9.270;2022-10-31T11:05:26;17.30;75.90
46752;DHT22;32497;48.936;9.270;2022-10-31T11:10:29;17.70;75.60
46752;DHT22;32497;48.936;9.270;2022-10-31T11:15:33;17.50;76.00
46752;DHT22;32497;48.936;9.270;2022-10-31T11:20:37;17.50;76.70
46752;DHT22;32497;48.936;9.270;2022-10-31T11:25:38;17.80;74.90
46752;DHT22;32497;48.936;9.270;2022-10-31T11:30:44;17.80;76.30
46752;DHT22;32497;48.936;9.270;2022-10-31T11:35:47;18.10;74.90
46752;DHT22;32497;48.936;9.270;2022-10-31T11:40:54;17.90;74.50
46752;DHT22;32497;48.936;9.270;2022-10-31T11:45:56;18.20;74.40
46752;DHT22;32497;48.936;9.270;2022-10-31T11:50:59;18.50;74.10
46752;DHT22;32497;48.936;9.270;2022-10-31T11:56:05;18.80;73.30
46752;DHT22;32497;48.936;9.270;2022-10-31T12:01:22;18.60;74.50
46752;DHT22;32497;48.936;9.270;2022-10-31T12:06:30;18.90;73.60
46752;DHT22;32497;48.936;9.270;2022-10-31T12:11:43;18.50;72.60
46752;DHT22;32497;48.936;9.270;2022-10-31T12:16:51;18.60;73.50
46752;DHT22;32497;48.936;9.270;2022-10-31T12:22:05;19.10;72.60
46752;DHT22;32497;48.936;9.270;2022-10-31T12:27:18;19.30;72.70
46752;DHT22;32497;48.936;9.270;2022-10-31T12:32:29;18.90;71.80
46752;DHT22;32497;48.936;9.270;2022-10-31T12:37:43;18.40;73.60
46752;DHT22;32497;48.936;9.270;2022-10-31T12:42:57;18.60;74.00
46752;DHT22;32497;48.936;9.270;2022-10-31T12:48:10;19.40;72.20
46752;DHT22;32497;48.936;9.270;2022-10-31T12:53:27;19.70;71.00
46752;DHT22;32497;48.936;9.270;2022-10-31T12:58:33;19.90;68.50
46752;DHT22;32497;48.936;9.270;2022-10-31T13:03:42;19.80;70.70
46752;DHT22;32497;48.936;9.270;2022-10-31T13:08:49;19.20;71.70
46752;DHT22;32497;48.936;9.270;2022-10-31T13:13:58;18.50;73.00
46752;DHT22;32497;48.936;9.270;2022-10-31T13:19:05;18.60;74.20
46752;DHT22;32497;48.936;9.270;2022-10-31T13:24:12;18.70;73.90
46752;DHT22;32497;48.936;9.270;2022-10-31T13:29:20;18.70;74.20
46752;DHT22;32497;48.936;9.270;2022-10-31T13:34:26;18.60;74.20
46752;DHT22;32497;48.936;9.270;2022-10-31T13:39:39;18.50;73.80
46752;DHT22;32497;48.936;9.270;2022-10-31T13:44:42;18.30;75.60
46752;DHT22;32497;48.936;9.270;2022-10-31T13:49:43;18.30;76.20
46752;DHT22;32497;48.936;9.270;2022-10-31T13:54:47;18.90;73.60
46752;DHT22;32497;48.936;9.270;2022-10-31T13:59:51;20.30;69.60
46752;DHT22;32497;48.936;9.270;2022-10-31T14:04:56;21.70;64.30
46752;DHT22;32497;48.936;9.270;2022-10-31T14:10:03;22.80;60.20
46752;DHT22;32497;48.936;9.270;2022-10-31T14:15:14;22.40;60.10
46752;DHT22;32497;48.936;9.270;2022-10-31T14:20:32;21.80;60.90
46752;DHT22;32497;48.936;9.270;2022-10-31T14:25:36;21.20;63.40
46752;DHT22;32497;48.936;9.270;2022-10-31T14:30:37;21.40;64.10
46752;DHT22;32497;48.936;9.270;2022-10-31T14:35:51;20.50;66.40
46752;DHT22;32497;48.936;9.270;2022-10-31T14:41:22;19.80;68.00
46752;DHT22;32497;48.936;9.270;2022-10-31T14:46:38;19.20;70.30
46752;DHT22;32497;48.936;9.270;2022-10-31T14:51:43;18.80;72.20
46752;DHT22;32497;48.936;9.270;2022-10-31T14:56:50;18.40;74.60
46752;DHT22;32497;48.936;9.270;2022-10-31T15:01:57;18.00;75.60
46752;DHT22;32497;48.936;9.270;2022-10-31T15:07:04;17.70;77.30
46752;DHT22;32497;48.936;9.270;2022-10-31T15:12:23;17.70;78.10
46752;DHT22;32497;48.936;9.270;2022-10-31T15:17:26;17.50;78.30
46752;DHT22;32497;48.936;9.270;2022-10-31T15:22:28;17.40;77.20
46752;DHT22;32497;48.936;9.270;2022-10-31T15:27:32;17.30;78.60
46752;DHT22;32497;48.936;9.270;2022-10-31T15:32:33;17.10;78.50
46752;DHT22;32497;48.936;9.270;2022-10-31T15:37:34;17.00;78.80
46752;DHT22;32497;48.936;9.270;2022-10-31T15:42:40;16.80;79.30
46752;DHT22;32497;48.936;9.270;2022-10-31T15:47:45;16.70;79.70
46752;DHT22;32497;48.936;9.270;2022-10-31T15:52:47;16.30;80.90
46752;DHT22;32497;48.936;9.270;2022-10-31T15:57:52;15.90;82.10
46752;DHT22;32497;48.936;9.270;2022-10-31T16:03:05;15.60;82.50
46752;DHT22;32497;48.936;9.270;2022-10-31T16:08:22;15.40;82.80
46752;DHT22;32497;48.936;9.270;2022-10-31T16:13:28;15.20;83.80
46752;DHT22;32497;48.936;9.270;2022-10-31T16:18:35;15.00;84.50
46752;DHT22;32497;48.936;9.270;2022-10-31T16:23:39;14.80;85.30
46752;DHT22;32497;48.936;9.270;2022-10-31T16:28:52;14.70;85.00
46752;DHT22;32497;48.936;9.270;2022-10-31T16:34:02;14.60;85.50
46752;DHT22;32497;48.936;9.270;2022-10-31T16:39:04;14.50;86.20
46752;DHT22;32497;48.936;9.270;2022-10-31T16:44:15;14.40;86.30
46752;DHT22;32497;48.936;9.270;2022-10-31T16:49:17;14.50;86.90
46752;DHT22;32497;48.936;9.270;2022-10-31T16:54:18;14.40;86.60
46752;DHT22;32497;48.936;9.270;2022-10-31T16:59:21;14.20;87.80
46752;DHT22;32497;48.936;9.270;2022-10-31T17:04:22;13.90;88.30
46752;DHT22;32497;48.936;9.270;2022-10-31T17:09:23;13.90;88.50
46752;DHT22;32497;48.936;9.270;2022-10-31T17:14:25;13.80;88.60
46752;DHT22;32497;48.936;9.270;2022-10-31T17:19:26;13.70;88.90
46752;DHT22;32497;48.936;9.270;2022-10-31T17:24:28;13.80;89.00
46752;DHT22;32497;48.936;9.270;2022-10-31T17:29:30;13.70;88.90
46752;DHT22;32497;48.936;9.270;2022-10-31T17:34:31;13.70;89.10
46752;DHT22;32497;48.936;9.270;2022-10-31T17:39:32;13.70;89.60
46752;DHT22;32497;48.936;9.270;2022-10-31T17:44:34;13.80;89.60
46752;DHT22;32497;48.936;9.270;2022-10-31T17:49:35;13.90;89.20
46752;DHT22;32497;48.936;9.270;2022-10-31T17:54:36;13.90;88.70
46752;DHT22;32497;48.936;9.270;2022-10-31T17:59:39;13.70;88.20
46752;DHT22;32497;48.936;9.270;2022-10-31T18:04:40;13.30;89.30
46752;DHT22;32497;48.936;9.270;2022-10-31T18:09:41;13.10;88.90
46752;DHT22;32497;48.936;9.270;2022-10-31T18:14:43;13.00;89.60
46752;DHT22;32497;48.936;9.270;2022-10-31T18:19:45;12.90;90.70
46752;DHT22;32497;48.936;9.270;2022-10-31T18:24:46;12.90;90.80
46752;DHT22;32497;48.936;9.270;2022-10-31T18:29:48;12.80;91.30
46752;DHT22;32497;48.936;9.270;2022-10-31T18:34:49;12.90;91.20
46752;DHT22;32497;48.936;9.270;2022-10-31T18:39:50;12.90;91.10
46752;DHT22;32497;48.936;9.270;2022-10-31T18:44:53;12.90;91.50
46752;DHT22;32497;48.936;9.270;2022-10-31T18:49:54;12.90;91.70
46752;DHT22;32497;48.936;9.270;2022-10-31T18:54:55;12.90;91.20
46752;DHT22;32497;48.936;9.270;2022-10-31T19:00:01;13.10;92.00
46752;DHT22;32497;48.936;9.270;2022-10-31T19:05:03;13.20;91.40
46752;DHT22;32497;48.936;9.270;2022-10-31T19:10:06;13.20;91.00
46752;DHT22;32497;48.936;9.270;2022-10-31T19:15:09;13.30;90.70
46752;DHT22;32497;48.936;9.270;2022-10-31T19:20:11;13.10;89.80
46752;DHT22;32497;48.936;9.270;2022-10-31T19:25:12;13.10;90.60
46752;DHT22;32497;48.936;9.270;2022-10-31T19:30:15;13.20;90.60
46752;DHT22;32497;48.936;9.270;2022-10-31T19:35:16;13.10;90.40
46752;DHT22;32497;48.936;9.270;2022-10-31T19:40:17;13.10;90.50
46752;DHT22;32497;48.936;9.270;2022-10-31T19:45:20;13.10;90.30
46752;DHT22;32497;48.936;9.270;2022-10-31T19:50:21;13.00;90.50
46752;DHT22;32497;48.936;9.270;2022-10-31T19:55:22;12.90;90.30
46752;DHT22;32497;48.936;9.270;2022-10-31T20:00:24;13.00;90.00
46752;DHT22;32497;48.936;9.270;2022-10-31T20:05:25;12.80;89.70
46752;DHT22;32497;48.936;9.270;2022-10-31T20:10:26;12.60;89.70
46752;DHT22;32497;48.936;9.270;2022-10-31T20:15:29;12.40;90.60
46752;DHT22;32497;48.936;9.270;2022-10-31T20:20:30;12.50;90.60
46752;DHT22;32497;48.936;9.270;2022-10-31T20:25:31;12.50;90.50
46752;DHT22;32497;48.936;9.270;2022-10-31T20:30:35;12.50;90.50
46752;DHT22;32497;48.936;9.270;2022-10-31T20:35:37;12.50;90.30
46752;DHT22;32497;48.936;9.270;2022-10-31T20:40:38;12.60;90.10
46752;DHT22;32497;48.936;9.270;2022-10-31T20:45:41;12.60;90.20
46752;DHT22;32497;48.936;9.270;2022-10-31T20:50:42;12.50;90.20
46752;DHT22;32497;48.936;9.270;2022-10-31T20:55:43;12.60;89.90
46752;DHT22;32497;48.936;9.270;2022-10-31T21:00:45;12.60;90.00
46752;DHT22;32497;48.936;9.270;2022-10-31T21:05:51;12.50;90.00
46752;DHT22;32497;48.936;9.270;2022-10-31T21:10:53;12.50;90.20
46752;DHT22;32497;48.936;9.270;2022-10-31T21:16:04;12.50;90.20
46752;DHT22;32497;48.936;9.270;2022-10-31T21:21:06;12.40;90.20
46752;DHT22;32497;48.936;9.270;2022-10-31T21:26:11;12.40;90.40
46752;DHT22;32497;48.936;9.270;2022-10-31T21:31:16;12.40;90.20
46752;DHT22;32497;48.936;9.270;2022-10-31T21:36:17;12.30;90.00
46752;DHT22;32497;48.936;9.270;2022-10-31T21:41:19;12.20;90.40
46752;DHT22;32497;48.936;9.270;2022-10-31T21:46:23;12.10;90.10
46752;DHT22;32497;48.936;9.270;2022-10-31T21:51:27;11.90;90.20
46752;DHT22;32497;48.936;9.270;2022-10-31T21:56:28;11.90;90.00
46752;DHT22;32497;48.936;9.270;2022-10-31T22:01:31;11.60;90.30
46752;DHT22;32497;48.936;9.270;2022-10-31T22:06:33;11.60;91.20
46752;DHT22;32497;48.936;9.270;2022-10-31T22:11:35;11.60;91.60
46752;DHT22;32497;48.936;9.270;2022-10-31T22:16:38;11.60;91.80
46752;DHT22;32497;48.936;9.270;2022-10-31T22:21:41;11.60;91.60
46752;DHT22;32497;48.936;9.270;2022-10-31T22:26:42;11.60;91.70
46752;DHT22;32497;48.936;9.270;2022-10-31T22:31:46;11.60;91.70
46752;DHT22;32497;48.936;9.270;2022-10-31T22:36:47;11.60;91.50
46752;DHT22;32497;48.936;9.270;2022-10-31T22:41:49;11.60;91.10
46752;DHT22;32497;48.936;9.270;2022-10-31T22:46:51;11.60;91.80
46752;DHT22;32497;48.936;9.270;2022-10-31T22:51:52;11.70;91.70
46752;DHT22;32497;48.936;9.270;2022-10-31T22:56:53;11.90;91.40
46752;DHT22;32497;48.936;9.270;2022-10-31T23:01:56;12.00;91.00
46752;DHT22;32497;48.936;9.270;2022-10-31T23:06:57;11.90;90.90
46752;DHT22;32497;48.936;9.270;2022-10-31T23:11:58;12.10;90.60
46752;DHT22;32497;48.936;9.270;2022-10-31T23:17:00;12.10;90.40
46752;DHT22;32497;48.936;9.270;2022-10-31T23:22:02;12.10;89.90
46752;DHT22;32497;48.936;9.270;2022-10-31T23:27:04;11.90;90.10
46752;DHT22;32497;48.936;9.270;2022-10-31T23:32:09;11.80;90.30
46752;DHT22;32497;48.936;9.270;2022-10-31T23:37:11;11.70;90.60
46752;DHT22;32497;48.936;9.270;2022-10-31T23:42:13;11.80;90.70
46752;DHT22;32497;48.936;9.270;2022-10-31T23:47:16;11.70;90.50
46752;DHT22;32497;48.936;9.270;2022-10-31T23:52:17;11.70;90.30
46752;DHT22;32497;48.936;9.270;2022-10-31T23:57:19;11.60;90.60
